Time;durP1;ratioP1;P1;durP2;ratioP2;P2;SDS_P1;SDS_P2;PMS_P1;PMS_P2;Temp;Humidity;BMP_temperature;BMP_pressure;BME280_temperature;BME280_humidity;BME280_pressure;Samples;Min_cycle;Max_cycle;Signal;HPM_P1;HPM_P2
2022/05/09 00:00:00;;;;;;;8.07;3.95;;;;;;;11.02;55.31;95867.88;5028948;28;20033;-74
2022/05/09 00:02:25;;;;;;;5.45;3.65;;;;;;;11.01;55.35;95867.03;5046309;28;20078;-74
2022/05/09 00:04:51;;;;;;;8.75;3.70;;;;;;;11.10;54.51;95870.56;5064829;28;20082;-74
2022/05/09 00:07:16;;;;;;;9.65;3.72;;;;;;;11.07;55.19;95881.63;5031698;28;20032;-74
2022/05/09 00:09:42;;;;;;;8.45;3.95;;;;;;;11.00;55.37;95873.41;5048214;28;20058;-74
2022/05/09 00:12:08;;;;;;;5.90;3.85;;;;;;;11.02;55.52;95875.91;5066326;28;20021;-73
2022/05/09 00:14:33;;;;;;;7.32;3.75;;;;;;;11.06;54.29;95879.97;5031315;28;20380;-73
2022/05/09 00:16:59;;;;;;;7.30;4.05;;;;;;;11.00;52.91;95878.78;5066231;28;20025;-74
2022/05/09 00:19:24;;;;;;;8.35;4.45;;;;;;;10.92;53.45;95879.63;5048080;28;20020;-73
2022/05/09 00:21:51;;;;;;;8.40;4.30;;;;;;;10.83;53.51;95883.31;5066308;28;20031;-73
2022/05/09 00:24:17;;;;;;;8.93;4.40;;;;;;;10.70;52.94;95876.63;5030945;28;20079;-73
2022/05/09 00:26:43;;;;;;;7.53;4.20;;;;;;;10.57;53.38;95879.78;5031458;28;20025;-73
2022/05/09 00:29:10;;;;;;;8.88;5.00;;;;;;;10.49;53.09;95883.25;5048046;28;20070;-73
2022/05/09 00:31:36;;;;;;;7.28;4.10;;;;;;;10.44;52.61;95885.59;5048025;28;20028;-73
2022/05/09 00:34:02;;;;;;;8.88;4.45;;;;;;;10.32;53.14;95890.41;5031174;28;20036;-73
2022/05/09 00:36:27;;;;;;;6.90;4.22;;;;;;;10.24;54.55;95893.06;5047560;28;20399;-74
2022/05/09 00:38:53;;;;;;;6.85;4.30;;;;;;;10.09;55.19;95885.66;5031359;28;20029;-74
2022/05/09 00:44:22;;;;;;;7.57;4.28;;;;;;;10.01;54.32;95889.16;5036568;28;20411;-72
2022/05/09 00:46:50;;;;;;;5.95;3.78;;;;;;;10.03;55.17;95883.63;5031467;28;20028;-73
2022/05/09 00:49:31;;;;;;;7.18;4.32;;;;;;;9.95;54.47;95880.91;5047727;28;20036;-73
2022/05/09 00:52:08;;;;;;;5.40;4.05;;;;;;;9.89;53.70;95895.81;5031410;28;20345;-74
2022/05/09 00:54:56;;;;;;;9.07;4.88;;;;;;;9.83;53.80;95888.44;5031159;28;20032;-73
2022/05/09 00:57:35;;;;;;;8.98;4.70;;;;;;;9.77;54.32;95884.53;5047687;28;20084;-74
2022/05/09 01:00:10;;;;;;;7.25;3.90;;;;;;;9.76;53.92;95890.91;5031344;28;20024;-75
2022/05/09 01:02:36;;;;;;;10.18;4.95;;;;;;;9.57;54.94;95891.97;5031538;28;20511;-75
2022/05/09 01:05:01;;;;;;;8.73;4.35;;;;;;;9.49;54.00;95890.09;5030919;28;20108;-76
2022/05/09 01:07:27;;;;;;;7.55;4.20;;;;;;;9.48;55.73;95885.75;5065202;28;20029;-74
2022/05/09 01:09:52;;;;;;;8.23;3.80;;;;;;;9.43;55.75;95888.88;5030563;28;20085;-73
2022/05/09 01:12:20;;;;;;;8.05;4.18;;;;;;;9.44;55.51;95889.75;5030605;28;20089;-74
2022/05/09 01:14:45;;;;;;;6.53;4.22;;;;;;;9.45;55.42;95886.91;5046585;28;20108;-74
2022/05/09 01:17:11;;;;;;;6.60;4.35;;;;;;;9.38;54.96;95896.56;5030822;28;20024;-74
2022/05/09 01:19:41;;;;;;;7.90;4.35;;;;;;;9.31;53.68;95890.16;5046942;28;20020;-73
2022/05/09 01:22:22;;;;;;;5.93;3.88;;;;;;;9.23;53.86;95894.47;5047660;28;20036;-76
2022/05/09 01:24:47;;;;;;;6.18;3.83;;;;;;;9.13;54.57;95893.72;5046917;28;20109;-73
2022/05/09 01:27:13;;;;;;;6.00;3.97;;;;;;;9.10;54.68;95891.38;5030526;28;20047;-74
2022/05/09 01:29:59;;;;;;;5.90;3.90;;;;;;;9.00;54.76;95897.66;5046536;28;20056;-74
2022/05/09 01:32:37;;;;;;;6.57;3.78;;;;;;;8.96;54.76;95896.31;5064908;28;20025;-74
2022/05/09 01:35:07;;;;;;;7.18;4.60;;;;;;;8.92;54.96;95892.25;5032026;28;20105;-75
2022/05/09 01:37:32;;;;;;;6.75;4.28;;;;;;;8.90;55.52;95894.22;5029686;28;20035;-74
2022/05/09 01:39:58;;;;;;;10.27;4.25;;;;;;;8.87;55.95;95887.34;5030258;28;20028;-74
2022/05/09 01:42:23;;;;;;;6.70;4.45;;;;;;;8.78;55.71;95885.63;5046677;28;20032;-74
2022/05/09 01:44:49;;;;;;;6.38;3.85;;;;;;;8.75;55.92;95893.94;5029849;28;20534;-74
2022/05/09 01:49:59;;;;;;;8.35;4.13;;;;;;;8.61;57.21;95898.00;5064481;28;20059;-73
2022/05/09 01:52:26;;;;;;;7.70;4.40;;;;;;;8.64;57.83;95890.50;5014320;28;20021;-75
2022/05/09 01:54:51;;;;;;;8.18;4.93;;;;;;;8.66;58.30;95893.03;5064165;28;20210;-74
2022/05/09 01:57:17;;;;;;;8.20;4.78;;;;;;;8.71;57.74;95901.44;5030241;28;20036;-73
2022/05/09 01:59:42;;;;;;;7.30;4.70;;;;;;;8.77;57.80;95894.63;5064617;28;20075;-74
2022/05/09 02:02:19;;;;;;;8.30;4.55;;;;;;;8.80;57.25;95896.16;5064330;28;20459;-74
2022/05/09 02:04:44;;;;;;;11.88;4.63;;;;;;;8.75;57.41;95897.44;5030340;28;20070;-74
2022/05/09 02:07:11;;;;;;;7.72;4.22;;;;;;;8.78;57.05;95896.31;5064314;28;20152;-75
2022/05/09 02:09:41;;;;;;;6.85;4.30;;;;;;;8.82;56.76;95894.19;5046808;28;20462;-75
2022/05/09 02:12:07;;;;;;;6.78;4.45;;;;;;;8.80;56.54;95894.34;5029890;28;20036;-75
2022/05/09 02:14:32;;;;;;;8.27;3.83;;;;;;;8.75;56.31;95891.28;5046482;28;20052;-73
2022/05/09 02:16:58;;;;;;;11.00;4.35;;;;;;;8.70;56.39;95896.25;5064579;28;20017;-74
2022/05/09 02:19:23;;;;;;;10.07;4.88;;;;;;;8.69;56.75;95895.38;5029636;28;20506;-75
2022/05/09 02:21:49;;;;;;;8.63;4.43;;;;;;;8.66;56.75;95898.38;5029726;28;20021;-74
2022/05/09 02:24:14;;;;;;;8.40;4.78;;;;;;;8.61;57.49;95900.69;5063868;28;20388;-73
2022/05/09 02:26:39;;;;;;;7.82;4.60;;;;;;;8.62;57.67;95897.00;5064584;28;20024;-75
2022/05/09 02:29:05;;;;;;;8.05;4.18;;;;;;;8.63;57.18;95898.69;5046315;28;20024;-73
2022/05/09 02:31:31;;;;;;;6.72;4.50;;;;;;;8.66;57.87;95903.72;5064584;28;20521;-74
2022/05/09 02:33:56;;;;;;;7.35;4.70;;;;;;;8.66;57.32;95903.72;5046118;28;20078;-73
2022/05/09 02:36:22;;;;;;;8.57;4.88;;;;;;;8.64;57.38;95901.19;5046373;28;20473;-75
2022/05/09 02:38:47;;;;;;;7.90;4.43;;;;;;;8.61;57.23;95900.69;5046180;28;20032;-74
2022/05/09 02:41:13;;;;;;;11.00;4.60;;;;;;;8.57;57.00;95905.50;5029405;28;20028;-73
2022/05/09 02:43:38;;;;;;;5.95;3.80;;;;;;;8.50;56.70;95912.41;5064434;28;20039;-73
2022/05/09 02:46:04;;;;;;;6.97;4.55;;;;;;;8.45;56.73;95912.03;5063978;28;20067;-73
2022/05/09 02:48:33;;;;;;;8.52;4.10;;;;;;;8.41;57.25;95909.63;5047990;28;20029;-75
2022/05/09 02:50:58;;;;;;;9.25;4.22;;;;;;;8.37;57.71;95926.97;5049817;28;20021;-75
2022/05/09 02:53:24;;;;;;;6.60;4.30;;;;;;;8.35;57.38;95918.25;5068023;28;20036;-74
2022/05/09 02:55:49;;;;;;;8.25;4.55;;;;;;;8.23;57.55;95917.66;5049634;28;20039;-75
2022/05/09 02:58:15;;;;;;;8.73;3.88;;;;;;;8.33;56.96;95919.41;5067597;28;20411;-75
2022/05/09 03:00:40;;;;;;;7.60;4.03;;;;;;;8.31;56.12;95919.56;5049593;28;20063;-74
2022/05/09 03:05:49;;;;;;;8.10;4.15;;;;;;;8.22;56.70;95926.63;5053333;28;20098;-75
2022/05/09 03:08:15;;;;;;;5.30;3.80;;;;;;;8.36;56.79;95922.63;5049228;28;20048;-76
2022/05/09 03:10:41;;;;;;;7.28;4.05;;;;;;;8.28;57.37;95928.75;5033222;28;20025;-76
2022/05/09 03:13:07;;;;;;;7.05;3.90;;;;;;;8.26;57.49;95922.69;5067036;28;20028;-74
2022/05/09 03:15:38;;;;;;;7.30;5.00;;;;;;;8.21;57.64;95927.66;5049450;28;20036;-75
2022/05/09 03:18:04;;;;;;;7.55;4.70;;;;;;;8.27;57.27;95920.88;5049606;28;20025;-76
2022/05/09 03:20:29;;;;;;;6.50;4.60;;;;;;;8.26;57.87;95929.88;5032687;28;20083;-74
2022/05/09 03:22:54;;;;;;;10.15;4.15;;;;;;;8.22;57.82;95933.84;5067503;28;20510;-75
2022/05/09 03:25:20;;;;;;;8.90;4.72;;;;;;;8.21;58.44;95943.69;5067071;28;20041;-75
2022/05/09 03:27:46;;;;;;;8.20;4.43;;;;;;;8.19;58.13;95937.63;5033139;28;20024;-76
2022/05/09 03:30:12;;;;;;;8.38;4.50;;;;;;;8.14;57.09;95942.59;5032385;28;20028;-75
2022/05/09 03:32:39;;;;;;;9.30;4.70;;;;;;;8.13;57.42;95940.91;5049128;28;20478;-75
2022/05/09 03:35:05;;;;;;;8.45;4.50;;;;;;;8.13;57.06;95938.22;5049067;28;20024;-75
2022/05/09 03:37:30;;;;;;;11.10;5.30;;;;;;;8.18;57.69;95949.31;5049078;28;20035;-74
2022/05/09 03:39:56;;;;;;;7.85;4.93;;;;;;;8.19;57.78;95945.66;5049149;28;20024;-75
2022/05/09 03:42:22;;;;;;;8.25;5.05;;;;;;;8.23;57.96;95947.06;5048668;28;20097;-75
2022/05/09 03:44:47;;;;;;;11.43;4.95;;;;;;;8.14;58.35;95938.09;5049148;28;20499;-74
2022/05/09 03:47:13;;;;;;;10.35;5.50;;;;;;;8.18;58.41;95943.13;5032012;28;20523;-74
2022/05/09 03:49:38;;;;;;;10.30;5.30;;;;;;;8.20;58.53;95947.34;5066978;28;20040;-73
2022/05/09 03:52:04;;;;;;;10.00;4.80;;;;;;;8.15;58.80;95949.63;5066723;28;20078;-73
2022/05/09 03:54:29;;;;;;;7.72;4.60;;;;;;;8.20;59.13;95947.34;5066157;28;20029;-75
2022/05/09 03:56:55;;;;;;;10.50;5.20;;;;;;;8.27;59.13;95958.28;5066596;28;20025;-75
2022/05/09 03:59:20;;;;;;;12.23;5.90;;;;;;;8.31;58.71;95948.97;5014476;28;20071;-75
2022/05/09 04:01:46;;;;;;;11.20;5.53;;;;;;;8.36;59.28;95954.72;5048413;28;20454;-75
2022/05/09 04:04:11;;;;;;;15.70;6.20;;;;;;;8.36;59.03;95956.53;5031740;28;20479;-75
2022/05/09 04:06:37;;;;;;;13.50;5.88;;;;;;;8.40;59.61;95952.56;5048639;28;20405;-75
2022/05/09 04:09:02;;;;;;;13.90;5.90;;;;;;;8.55;58.25;95954.75;5031617;28;20438;-73
2022/05/09 04:11:28;;;;;;;12.75;5.72;;;;;;;8.63;58.22;95944.13;5031637;28;20028;-75
2022/05/09 04:13:53;;;;;;;8.25;5.25;;;;;;;8.77;58.11;95954.31;5048246;28;20021;-74
2022/05/09 04:19:02;;;;;;;15.68;6.05;;;;;;;9.19;57.97;95957.31;5051111;28;20032;-75
2022/05/09 04:21:28;;;;;;;8.60;4.70;;;;;;;9.37;57.44;95959.13;5048072;28;20021;-74
2022/05/09 04:23:58;;;;;;;11.77;5.60;;;;;;;9.58;56.34;95955.25;5031670;28;20054;-75
2022/05/09 04:26:26;;;;;;;9.88;5.45;;;;;;;9.82;55.44;95953.75;5016295;28;20028;-75
2022/05/09 04:28:52;;;;;;;12.13;5.18;;;;;;;10.07;54.44;95965.41;5031901;28;20028;-77
2022/05/09 04:31:19;;;;;;;10.05;5.60;;;;;;;10.26;54.47;95952.75;5065867;28;20141;-75
2022/05/09 04:33:45;;;;;;;9.00;5.30;;;;;;;10.38;54.13;95959.47;5047662;28;20098;-74
2022/05/09 04:36:11;;;;;;;8.40;5.40;;;;;;;10.64;54.27;95963.09;5065909;28;20024;-74
2022/05/09 04:38:39;;;;;;;12.00;5.35;;;;;;;10.85;54.13;95965.31;5047625;28;20028;-74
2022/05/09 04:41:04;;;;;;;6.30;4.32;;;;;;;11.06;52.93;95968.53;5048509;28;20025;-75
2022/05/09 04:43:31;;;;;;;10.82;4.85;;;;;;;11.24;53.09;95969.19;5047469;28;20028;-75
2022/05/09 04:46:00;;;;;;;8.68;5.10;;;;;;;11.44;52.58;95971.56;5047909;28;20020;-75
2022/05/09 04:48:25;;;;;;;8.57;4.55;;;;;;;11.63;51.70;95980.25;5031072;28;20036;-75
2022/05/09 04:50:50;;;;;;;7.65;4.97;;;;;;;11.83;50.91;95975.34;5047186;28;20063;-73
2022/05/09 04:53:16;;;;;;;13.27;4.88;;;;;;;12.01;50.38;95976.16;5047723;28;20024;-75
2022/05/09 04:55:42;;;;;;;9.07;4.82;;;;;;;12.23;50.17;95967.38;5047096;28;20040;-75
2022/05/09 04:58:11;;;;;;;10.10;5.07;;;;;;;12.39;50.55;95962.06;5047645;28;20511;-75
2022/05/09 05:00:36;;;;;;;8.50;4.72;;;;;;;12.56;50.15;95968.19;5030823;28;20025;-74
2022/05/09 05:03:01;;;;;;;14.00;5.38;;;;;;;12.68;50.04;95968.66;5065644;28;20032;-74
2022/05/09 05:05:27;;;;;;;13.55;5.75;;;;;;;12.84;50.14;95965.03;5043716;28;20037;-75
2022/05/09 05:07:52;;;;;;;8.13;4.85;;;;;;;13.06;49.24;95967.91;5043732;28;20112;-75
2022/05/09 05:10:18;;;;;;;9.45;5.10;;;;;;;13.16;48.66;95963.13;5043802;28;20075;-75
2022/05/09 05:12:44;;;;;;;10.35;5.00;;;;;;;13.24;49.09;95972.97;5026972;28;20108;-73
2022/05/09 05:15:09;;;;;;;9.13;5.22;;;;;;;13.47;48.37;95972.13;5043692;28;20032;-74
2022/05/09 05:17:35;;;;;;;10.70;4.57;;;;;;;13.64;47.82;95975.53;5043525;28;20036;-74
2022/05/09 05:20:02;;;;;;;8.30;4.45;;;;;;;13.78;47.31;95971.22;5043970;28;20040;-75
2022/05/09 05:22:28;;;;;;;10.73;4.68;;;;;;;13.98;46.86;95972.53;5044857;28;20484;-73
2022/05/09 05:24:54;;;;;;;9.43;5.50;;;;;;;14.15;46.95;95970.47;5044760;28;20028;-74
2022/05/09 05:27:21;;;;;;;13.80;6.07;;;;;;;14.36;46.67;95972.44;5043452;28;20043;-74
2022/05/09 05:29:47;;;;;;;7.75;4.78;;;;;;;14.51;46.46;95975.09;5026593;28;20110;-75
2022/05/09 05:32:21;;;;;;;6.78;4.28;;;;;;;14.61;45.80;95977.50;5043403;28;20025;-74
2022/05/09 05:34:50;;;;;;;9.45;3.92;;;;;;;14.81;46.16;95968.81;5026398;28;20047;-75
2022/05/09 05:37:16;;;;;;;6.35;4.50;;;;;;;14.94;44.98;95974.34;5043768;28;20135;-79
2022/05/09 05:39:42;;;;;;;14.10;4.53;;;;;;;15.00;44.81;95975.47;5026695;28;20754;-75
2022/05/09 05:42:08;;;;;;;8.85;4.50;;;;;;;15.16;44.89;95974.38;5043177;28;20449;-74
2022/05/09 05:44:34;;;;;;;9.98;4.95;;;;;;;15.24;44.71;95973.41;5044557;28;20020;-76
2022/05/09 05:47:04;;;;;;;6.15;4.03;;;;;;;15.50;43.10;95968.44;5043091;28;20513;-75
2022/05/09 05:49:30;;;;;;;7.63;4.05;;;;;;;15.56;42.91;95971.22;5027012;28;20032;-75
2022/05/09 05:51:59;;;;;;;7.72;4.10;;;;;;;15.69;43.60;95965.06;5026356;28;20411;-74
2022/05/09 05:54:24;;;;;;;10.75;4.85;;;;;;;15.79;43.15;95974.69;5044867;28;20396;-76
2022/05/09 05:56:49;;;;;;;7.68;4.00;;;;;;;15.96;43.24;95969.00;5042940;28;20527;-75
2022/05/09 05:59:15;;;;;;;8.65;4.75;;;;;;;16.11;43.10;95966.19;5044683;28;20040;-75
2022/05/09 06:01:40;;;;;;;9.73;4.65;;;;;;;16.15;42.29;95973.72;5044667;28;20083;-74
2022/05/09 06:04:06;;;;;;;10.55;4.13;;;;;;;16.35;41.79;95970.28;5052531;28;20044;-75
2022/05/09 06:06:31;;;;;;;8.73;4.55;;;;;;;16.48;42.32;95968.69;5064344;28;20029;-74
2022/05/09 06:08:56;;;;;;;9.80;4.65;;;;;;;16.39;41.74;95963.47;5029479;28;20122;-75
2022/05/09 06:11:22;;;;;;;8.50;5.18;;;;;;;16.59;42.00;95975.41;5064578;28;20506;-74
2022/05/09 06:13:47;;;;;;;7.00;4.72;;;;;;;16.63;41.48;95968.53;5064205;28;20044;-74
2022/05/09 06:16:13;;;;;;;10.93;4.00;;;;;;;16.79;41.19;95965.50;5064583;28;20419;-77
2022/05/09 06:18:38;;;;;;;7.63;4.18;;;;;;;16.93;42.58;95966.34;5064395;28;20048;-74
2022/05/09 06:21:03;;;;;;;7.78;4.32;;;;;;;16.74;42.33;95964.41;5064178;28;20043;-75
2022/05/09 06:23:29;;;;;;;7.40;3.70;;;;;;;16.99;40.71;95977.41;5047860;28;20020;-75
2022/05/09 06:25:56;;;;;;;9.02;4.18;;;;;;;17.04;40.14;95964.91;5050373;28;20094;-77
2022/05/09 06:28:23;;;;;;;9.15;4.32;;;;;;;17.17;40.26;95969.56;5017394;28;20503;-76
2022/05/09 06:30:48;;;;;;;8.25;4.63;;;;;;;17.28;40.26;95959.97;5050403;28;20029;-76
2022/05/09 06:33:22;;;;;;;5.80;4.18;;;;;;;17.41;39.67;95964.59;5068125;28;20078;-78
2022/05/09 06:35:48;;;;;;;8.73;4.50;;;;;;;17.48;39.55;95963.75;5034017;28;20060;-76
2022/05/09 06:38:15;;;;;;;10.05;4.35;;;;;;;17.50;39.68;95961.66;5050258;28;20082;-77
2022/05/09 06:40:40;;;;;;;6.97;4.72;;;;;;;17.41;40.94;95969.19;5033841;28;20488;-75
2022/05/09 06:43:06;;;;;;;6.53;4.72;;;;;;;17.46;40.23;95960.44;5049593;28;20028;-75
2022/05/09 06:45:32;;;;;;;8.60;5.07;;;;;;;17.69;40.39;95960.00;5049841;28;20596;-75
2022/05/09 06:47:58;;;;;;;11.63;6.00;;;;;;;17.75;40.40;95961.06;5049849;28;20029;-76
2022/05/09 06:50:28;;;;;;;16.38;7.05;;;;;;;17.85;40.22;95964.16;5049743;28;20566;-75
2022/05/09 06:52:53;;;;;;;7.03;5.47;;;;;;;18.08;39.80;95957.47;5050917;28;20032;-76
2022/05/09 06:55:19;;;;;;;12.18;5.40;;;;;;;17.89;39.92;95957.25;5049968;28;20029;-76
2022/05/09 06:57:45;;;;;;;14.80;5.70;;;;;;;17.61;40.63;95958.34;5033230;28;20039;-77
2022/05/09 07:00:13;;;;;;;9.77;5.68;;;;;;;17.56;41.94;95952.69;5033043;28;20032;-75
2022/05/09 07:02:38;;;;;;;8.65;5.32;;;;;;;17.36;42.88;95952.69;5033474;28;20029;-75
2022/05/09 07:05:05;;;;;;;11.70;5.60;;;;;;;17.25;43.04;95954.16;5066618;28;20037;-75
2022/05/09 07:07:31;;;;;;;11.00;6.35;;;;;;;17.56;41.87;95949.97;5031772;28;20043;-75
2022/05/09 07:09:56;;;;;;;10.63;5.68;;;;;;;17.80;40.41;95955.81;5049362;28;20032;-75
2022/05/09 07:12:22;;;;;;;10.35;5.70;;;;;;;17.98;39.20;95955.19;5048687;28;20023;-76
2022/05/09 07:14:47;;;;;;;8.32;5.80;;;;;;;18.16;38.66;95949.13;5032723;28;20074;-74
2022/05/09 07:17:13;;;;;;;8.80;5.57;;;;;;;18.30;38.52;95956.41;5049343;28;20111;-76
2022/05/09 07:19:38;;;;;;;11.07;6.28;;;;;;;18.41;38.10;95959.28;5032593;28;20032;-76
2022/05/09 07:22:04;;;;;;;11.00;5.45;;;;;;;18.52;37.87;95951.53;5067119;28;20031;-76
2022/05/09 07:24:29;;;;;;;14.30;6.07;;;;;;;18.66;38.45;95952.28;5067005;28;20097;-74
2022/05/09 07:26:54;;;;;;;10.60;5.18;;;;;;;18.77;37.30;95948.91;5049220;28;20032;-75
2022/05/09 07:29:20;;;;;;;10.88;4.82;;;;;;;18.94;37.12;95948.41;5048959;28;20032;-76
2022/05/09 07:31:45;;;;;;;12.20;5.25;;;;;;;18.24;38.82;95945.34;5049207;28;20036;-74
2022/05/09 07:34:11;;;;;;;7.20;4.22;;;;;;;18.35;39.65;95946.56;5067262;28;20028;-73
2022/05/09 07:36:36;;;;;;;10.20;5.03;;;;;;;18.66;37.70;95941.44;5067130;28;20040;-76
2022/05/09 07:39:02;;;;;;;9.05;5.32;;;;;;;18.85;37.35;95946.97;5067211;28;20029;-74
2022/05/09 07:41:27;;;;;;;11.02;4.95;;;;;;;18.96;37.10;95948.19;5048683;28;20032;-76
2022/05/09 07:43:54;;;;;;;7.30;4.03;;;;;;;19.09;36.84;95942.69;5048987;28;20024;-75
2022/05/09 07:46:19;;;;;;;6.07;3.47;;;;;;;19.14;37.39;95945.59;5067078;28;20103;-75
2022/05/09 07:48:46;;;;;;;9.82;3.97;;;;;;;19.21;37.46;95942.00;5067291;28;20028;-77
2022/05/09 07:51:14;;;;;;;7.10;3.30;;;;;;;19.36;37.30;95944.41;5067078;28;20028;-77
2022/05/09 07:53:39;;;;;;;6.65;3.75;;;;;;;19.58;36.87;95944.84;5066649;28;20030;-76
2022/05/09 07:56:06;;;;;;;11.65;4.18;;;;;;;19.45;36.79;95943.06;5066780;28;20036;-75
2022/05/09 07:58:32;;;;;;;9.30;4.43;;;;;;;19.63;35.88;95945.03;5048380;28;20036;-76
2022/05/09 08:00:58;;;;;;;8.88;4.30;;;;;;;19.76;35.49;95944.06;5031920;28;20035;-77
2022/05/09 08:03:24;;;;;;;10.45;4.43;;;;;;;19.88;35.54;95946.06;5048312;28;20043;-76
2022/05/09 08:05:50;;;;;;;8.30;3.97;;;;;;;20.02;35.82;95941.34;5015338;28;20412;-75
2022/05/09 08:08:15;;;;;;;7.85;3.53;;;;;;;20.21;35.28;95934.03;5032047;28;20406;-75
2022/05/09 08:10:42;;;;;;;4.15;2.70;;;;;;;20.33;34.95;95939.56;5066107;28;20034;-77
2022/05/09 08:13:07;;;;;;;7.03;3.30;;;;;;;20.49;34.65;95940.03;5032217;28;20401;-74
2022/05/09 08:15:34;;;;;;;5.55;2.75;;;;;;;20.46;34.02;95940.44;5031408;28;20036;-74
2022/05/09 08:18:01;;;;;;;8.23;2.75;;;;;;;20.40;33.52;95938.63;5066545;28;20020;-76
2022/05/09 08:20:27;;;;;;;8.02;3.08;;;;;;;20.10;35.06;95943.78;5048422;28;20032;-75
2022/05/09 08:23:00;;;;;;;8.30;2.80;;;;;;;20.35;34.32;95942.88;5031536;28;20040;-75
2022/05/09 08:25:26;;;;;;;8.85;2.75;;;;;;;20.44;33.32;95943.41;5048518;28;20503;-76
2022/05/09 08:27:51;;;;;;;6.28;2.90;;;;;;;20.54;33.29;95940.16;5065824;28;20041;-76
2022/05/09 08:30:18;;;;;;;8.73;3.03;;;;;;;20.34;34.13;95935.78;5048270;28;20483;-75
2022/05/09 08:32:43;;;;;;;5.15;2.17;;;;;;;19.96;31.33;95944.94;5065672;28;20055;-76
2022/05/09 08:35:09;;;;;;;5.22;2.03;;;;;;;20.12;32.04;95940.81;5065927;28;20028;-75
2022/05/09 08:37:35;;;;;;;6.85;2.25;;;;;;;20.29;32.11;95935.63;5047470;28;20418;-76
2022/05/09 08:40:01;;;;;;;5.05;2.40;;;;;;;20.19;32.38;95940.75;5065840;28;20114;-75
2022/05/09 08:42:48;;;;;;;5.80;2.30;;;;;;;20.47;32.15;95937.50;5047915;28;20384;-74
2022/05/09 08:45:26;;;;;;;7.72;2.47;;;;;;;20.60;31.51;95931.06;5027487;28;20144;-77
2022/05/09 08:48:10;;;;;;;4.75;2.40;;;;;;;20.74;31.43;95931.75;5065628;28;20488;-76
2022/05/09 08:51:06;;;;;;;4.82;2.13;;;;;;;20.87;32.78;95936.19;5065578;28;20462;-78
2022/05/09 08:53:35;;;;;;;5.28;2.53;;;;;;;20.84;30.99;95939.38;5050409;28;20059;-76
2022/05/09 08:56:01;;;;;;;6.65;2.03;;;;;;;20.97;29.21;95934.81;5014801;28;20025;-77
2022/05/09 08:58:40;;;;;;;2.88;1.80;;;;;;;20.88;28.83;95931.53;5031090;28;20094;-78
2022/05/09 09:01:13;;;;;;;6.47;1.65;;;;;;;20.96;28.54;95927.69;5065964;28;20051;-74
2022/05/09 09:03:40;;;;;;;5.22;1.95;;;;;;;21.07;29.00;95926.91;5030832;28;20067;-75
2022/05/09 09:06:13;;;;;;;5.97;2.13;;;;;;;21.29;30.18;95926.38;5047250;28;20503;-76
2022/05/09 09:08:54;;;;;;;4.22;2.05;;;;;;;21.53;28.34;95923.72;5031323;28;20033;-75
2022/05/09 09:11:29;;;;;;;5.88;1.85;;;;;;;21.58;27.06;95925.72;5065441;28;20032;-75
2022/05/09 09:14:00;;;;;;;4.55;1.73;;;;;;;21.52;26.48;95919.31;5048484;28;20036;-75
2022/05/09 09:17:01;;;;;;;3.65;1.58;;;;;;;21.45;28.05;95916.69;5031186;28;20064;-79
2022/05/09 09:19:29;;;;;;;4.38;1.65;;;;;;;21.50;27.93;95910.53;5054021;28;20041;-74
2022/05/09 09:22:22;;;;;;;5.05;1.98;;;;;;;21.54;26.02;95906.25;5065107;28;20039;-75
2022/05/09 09:24:56;;;;;;;5.30;1.50;;;;;;;21.56;25.83;95908.75;5065091;28;20029;-77
2022/05/09 09:27:46;;;;;;;5.40;1.50;;;;;;;21.67;25.10;95907.09;5047161;28;20167;-77
2022/05/09 09:30:17;;;;;;;3.08;1.27;;;;;;;21.59;25.10;95908.28;5030553;28;20020;-76
2022/05/09 09:32:48;;;;;;;3.22;1.50;;;;;;;21.69;24.58;95913.16;5047392;28;20027;-75
2022/05/09 09:35:18;;;;;;;3.65;1.50;;;;;;;21.39;24.58;95900.44;5048019;28;20039;-77
2022/05/09 09:37:49;;;;;;;4.20;1.60;;;;;;;21.52;25.34;95905.69;5030839;28;20581;-77
2022/05/09 09:40:14;;;;;;;3.67;1.60;;;;;;;21.51;24.45;95906.72;5030817;28;20021;-75
2022/05/09 09:42:40;;;;;;;4.55;1.33;;;;;;;21.67;24.47;95896.19;5046880;28;20094;-76
2022/05/09 09:45:29;;;;;;;3.90;1.50;;;;;;;21.80;23.39;95898.72;5030199;28;20080;-76
2022/05/09 09:48:14;;;;;;;8.85;1.40;;;;;;;21.48;23.21;95896.28;5047481;28;20479;-75
2022/05/09 09:51:03;;;;;;;3.72;1.40;;;;;;;21.57;24.57;95888.59;5030469;28;20059;-75
2022/05/09 09:53:51;;;;;;;2.97;1.33;;;;;;;21.73;24.53;95892.53;5046957;28;20039;-73
2022/05/09 09:56:20;;;;;;;3.80;1.17;;;;;;;21.64;24.08;95889.31;5040026;28;20868;-76
2022/05/09 09:58:45;;;;;;;6.47;1.40;;;;;;;21.63;23.31;95892.28;5046069;28;20028;-75
2022/05/09 10:01:18;;;;;;;8.38;1.58;;;;;;;21.72;22.45;95891.69;5030276;28;20129;-75
2022/05/09 10:03:45;;;;;;;2.50;1.10;;;;;;;21.68;20.79;95884.22;5064580;28;20048;-76
2022/05/09 10:06:18;;;;;;;4.40;0.98;;;;;;;21.66;21.04;95887.19;5013706;28;20033;-75
2022/05/09 10:08:43;;;;;;;3.10;1.20;;;;;;;21.53;20.82;95877.31;5030736;28;20029;-75
2022/05/09 10:11:21;;;;;;;3.85;1.23;;;;;;;21.61;20.93;95885.16;5029746;28;20059;-74
2022/05/09 10:13:49;;;;;;;4.20;1.40;;;;;;;21.69;20.69;95874.94;5046966;28;20025;-75
2022/05/09 10:16:26;;;;;;;6.60;1.20;;;;;;;21.81;21.43;95867.59;5030060;28;20067;-76
2022/05/09 10:18:52;;;;;;;4.28;0.93;;;;;;;21.91;18.06;95874.38;5064831;28;20063;-75
2022/05/09 10:26:58;;;;;;;4.07;0.90;;;;;;;22.02;14.17;95873.53;5049778;28;20031;-75
2022/05/09 10:29:24;;;;;;;2.92;0.60;;;;;;;21.97;14.88;95876.16;5029611;28;20411;-76
2022/05/09 10:31:55;;;;;;;4.47;0.68;;;;;;;21.98;15.21;95869.63;5046608;28;20030;-74
2022/05/09 10:34:26;;;;;;;2.45;0.95;;;;;;;22.01;14.61;95871.03;5029827;28;20021;-75
2022/05/09 10:37:00;;;;;;;3.30;0.90;;;;;;;22.00;15.65;95881.16;5030566;28;20034;-76
2022/05/09 10:39:40;;;;;;;2.55;0.50;;;;;;;21.96;15.29;95871.75;5064345;28;20115;-75
2022/05/09 10:42:07;;;;;;;3.45;0.80;;;;;;;22.00;16.40;95869.38;5064465;28;20036;-75
2022/05/09 10:44:53;;;;;;;1.70;0.55;;;;;;;22.02;14.75;95873.53;5029994;28;20435;-75
2022/05/09 10:47:52;;;;;;;1.50;0.88;;;;;;;22.01;14.75;95862.84;5029341;28;20499;-76
2022/05/09 10:50:39;;;;;;;3.22;0.75;;;;;;;21.93;15.71;95872.22;5039050;28;20032;-76
2022/05/09 10:53:35;;;;;;;3.25;1.00;;;;;;;21.96;17.08;95869.03;5046729;28;20411;-75
2022/05/09 10:56:11;;;;;;;2.15;0.82;;;;;;;22.22;17.83;95867.69;5047400;28;20024;-75
2022/05/09 10:58:42;;;;;;;2.78;0.80;;;;;;;22.35;16.33;95866.59;5064170;28;20436;-75
2022/05/09 11:01:18;;;;;;;3.22;0.90;;;;;;;22.38;15.65;95865.25;5064178;28;20029;-74
2022/05/09 11:03:45;;;;;;;2.95;0.60;;;;;;;22.50;14.17;95861.66;5047250;28;20105;-75
2022/05/09 11:06:32;;;;;;;2.83;0.77;;;;;;;22.62;15.99;95858.94;5030140;28;20067;-74
2022/05/09 11:08:57;;;;;;;2.95;0.68;;;;;;;22.70;14.61;95853.06;5064480;28;20028;-75
2022/05/09 11:11:25;;;;;;;2.53;0.60;;;;;;;22.64;16.22;95860.34;5067117;28;20032;-76
2022/05/09 11:13:59;;;;;;;4.07;0.82;;;;;;;22.77;15.94;95847.44;5067507;28;20024;-74
2022/05/09 11:16:33;;;;;;;1.55;0.70;;;;;;;22.78;15.67;95863.59;5067241;28;20025;-75
2022/05/09 11:19:19;;;;;;;3.08;0.70;;;;;;;22.80;15.71;95850.53;5067645;28;20083;-75
2022/05/09 11:22:16;;;;;;;2.72;0.90;;;;;;;23.00;16.05;95849.25;5033453;28;20025;-76
2022/05/09 11:25:14;;;;;;;2.25;1.20;;;;;;;22.89;15.39;95853.69;5034710;28;20044;-74
2022/05/09 11:27:45;;;;;;;2.63;1.13;;;;;;;22.59;14.90;95849.28;5051284;28;20036;-75
2022/05/09 11:30:23;;;;;;;1.70;0.80;;;;;;;22.63;16.44;95836.81;5049046;28;20029;-75
2022/05/09 11:32:55;;;;;;;2.17;0.80;;;;;;;22.82;16.75;95837.44;5066977;28;20032;-75
2022/05/09 11:35:31;;;;;;;3.38;0.60;;;;;;;22.85;15.08;95836.13;5048935;28;20020;-76
2022/05/09 11:38:07;;;;;;;5.97;0.88;;;;;;;22.99;16.23;95833.88;5066725;28;20568;-76
2022/05/09 11:40:42;;;;;;;3.88;0.88;;;;;;;23.01;16.16;95834.47;5049391;28;20098;-75
2022/05/09 11:43:30;;;;;;;3.47;1.00;;;;;;;23.12;15.99;95823.72;5066988;28;20033;-76
2022/05/09 11:46:22;;;;;;;2.28;1.00;;;;;;;23.15;16.74;95825.97;5051496;28;20453;-75
2022/05/09 11:49:16;;;;;;;2.53;1.17;;;;;;;23.24;17.02;95821.72;5062070;28;20051;-76
2022/05/09 11:51:46;;;;;;;8.52;1.27;;;;;;;23.22;16.84;95823.88;5031864;28;20086;-76
2022/05/09 11:54:50;;;;;;;1.65;0.70;;;;;;;23.29;16.32;95824.56;5048882;28;20035;-75
2022/05/09 11:57:28;;;;;;;2.22;0.70;;;;;;;23.52;14.89;95824.66;5063552;28;20044;-78
2022/05/09 11:59:55;;;;;;;4.82;0.90;;;;;;;23.67;15.60;95813.94;5033003;28;20046;-80